createdAt,value
2022-08-26T00:00:14.471Z,49.71
2022-08-26T00:00:44.455Z,49.71
2022-08-26T00:01:15.442Z,49.71
2022-08-26T00:01:45.436Z,49.71
2022-08-26T00:02:15.707Z,49.71
2022-08-26T00:02:49.330Z,49.71
2022-08-26T00:03:19.330Z,49.71
2022-08-26T00:03:49.332Z,49.71
2022-08-26T00:04:19.512Z,49.71
2022-08-26T00:04:49.516Z,49.71
2022-08-26T00:05:19.712Z,49.71
2022-08-26T00:05:49.706Z,49.71
2022-08-26T00:06:20.889Z,49.71
2022-08-26T00:06:50.980Z,49.71
2022-08-26T00:07:20.982Z,49.71
2022-08-26T00:07:50.973Z,49.71
2022-08-26T00:08:21.359Z,49.71
2022-08-26T00:08:51.343Z,49.71
2022-08-26T00:09:21.514Z,49.71
2022-08-26T00:09:54.516Z,49.71
2022-08-26T00:10:25.877Z,49.71
2022-08-26T00:10:55.931Z,49.71
2022-08-26T00:11:29.885Z,49.71
2022-08-26T00:11:59.928Z,49.71
2022-08-26T00:12:36.005Z,49.71
2022-08-26T00:13:05.662Z,49.71
2022-08-26T00:13:36.281Z,49.71
2022-08-26T00:14:06.274Z,49.71
2022-08-26T00:14:36.282Z,49.71
2022-08-26T00:15:06.262Z,49.71
2022-08-26T00:16:14.271Z,49.81
2022-08-26T00:16:47.283Z,49.71
2022-08-26T00:17:18.255Z,49.71
2022-08-26T00:17:49.502Z,49.71
2022-08-26T00:18:22.615Z,49.71
2022-08-26T00:18:52.769Z,49.71
2022-08-26T00:19:22.774Z,49.71
2022-08-26T00:19:53.193Z,49.71
2022-08-26T00:20:23.351Z,49.71
2022-08-26T00:20:53.628Z,49.71
2022-08-26T00:21:23.626Z,49.71
2022-08-26T00:21:53.612Z,49.71
2022-08-26T00:22:23.624Z,49.71
2022-08-26T00:22:54.501Z,49.71
2022-08-26T00:23:24.492Z,49.71
2022-08-26T00:23:54.511Z,49.71
2022-08-26T00:24:24.507Z,49.71
2022-08-26T00:24:55.376Z,49.71
2022-08-26T00:25:25.358Z,49.71
2022-08-26T00:25:55.341Z,49.71
2022-08-26T00:26:28.367Z,49.71
2022-08-26T00:26:58.567Z,49.71
2022-08-26T00:27:28.577Z,49.81
2022-08-26T00:27:58.585Z,49.71
2022-08-26T00:28:28.566Z,49.71
2022-08-26T00:28:58.558Z,49.71
2022-08-26T00:29:28.542Z,49.71
2022-08-26T00:30:01.890Z,49.71
2022-08-26T00:30:31.896Z,49.71
2022-08-26T00:31:01.873Z,49.71
2022-08-26T00:31:31.912Z,49.71
2022-08-26T00:32:02.082Z,49.71
2022-08-26T00:32:34.104Z,49.71
2022-08-26T00:33:04.561Z,49.71
2022-08-26T00:33:35.467Z,49.71
2022-08-26T00:34:05.451Z,49.71
2022-08-26T00:34:35.455Z,49.81
2022-08-26T00:35:05.464Z,49.71
2022-08-26T00:35:36.201Z,49.81
2022-08-26T00:36:06.211Z,49.81
2022-08-26T00:36:36.204Z,49.81
2022-08-26T00:37:08.937Z,49.81
2022-08-26T00:37:40.341Z,49.81
2022-08-26T00:38:10.336Z,49.81
2022-08-26T00:38:40.774Z,49.81
2022-08-26T00:39:12.187Z,49.81
2022-08-26T00:39:42.173Z,49.81
2022-08-26T00:40:12.537Z,49.81
2022-08-26T00:40:42.546Z,49.81
2022-08-26T00:41:12.548Z,49.81
2022-08-26T00:41:42.619Z,49.81
2022-08-26T00:42:12.616Z,49.81
2022-08-26T00:42:46.087Z,49.81
2022-08-26T00:43:16.220Z,49.81
2022-08-26T00:43:47.963Z,49.81
2022-08-26T00:44:18.077Z,49.81
2022-08-26T00:44:48.064Z,49.81
2022-08-26T00:45:20.702Z,49.81
2022-08-26T00:45:51.922Z,49.81
2022-08-26T00:46:21.958Z,49.81
2022-08-26T00:46:52.458Z,49.81
2022-08-26T00:47:23.924Z,49.81
2022-08-26T00:47:53.930Z,49.81
2022-08-26T00:48:23.908Z,49.81
2022-08-26T00:48:54.232Z,49.81
2022-08-26T00:49:24.591Z,49.81
2022-08-26T00:49:54.565Z,49.81
2022-08-26T00:50:24.548Z,49.81
2022-08-26T00:50:55.245Z,49.81
2022-08-26T00:51:29.669Z,49.81
2022-08-26T00:52:00.114Z,49.81
2022-08-26T00:52:30.197Z,49.81
2022-08-26T00:53:00.184Z,49.81
2022-08-26T00:53:30.193Z,49.81
2022-08-26T00:54:02.222Z,49.81
2022-08-26T00:54:33.625Z,49.81
2022-08-26T00:55:03.611Z,49.81
2022-08-26T00:55:37.856Z,49.81
2022-08-26T00:56:08.296Z,49.81
2022-08-26T00:56:38.284Z,49.81
2022-08-26T00:57:08.675Z,49.81
2022-08-26T00:57:43.224Z,49.81
2022-08-26T00:58:15.218Z,49.81
2022-08-26T00:58:45.218Z,49.81
2022-08-26T00:59:15.198Z,49.81
2022-08-26T00:59:47.862Z,49.81
2022-08-26T01:00:18.185Z,49.81
2022-08-26T01:00:48.213Z,49.81
2022-08-26T01:01:18.354Z,49.81
2022-08-26T01:01:53.153Z,49.81
2022-08-26T01:02:23.318Z,49.81
2022-08-26T01:02:53.318Z,49.81
2022-08-26T01:03:23.325Z,49.81
2022-08-26T01:03:54.341Z,49.81
2022-08-26T01:04:26.149Z,49.81
2022-08-26T01:04:56.534Z,49.81
2022-08-26T01:05:26.551Z,49.81
2022-08-26T01:05:56.543Z,49.81
2022-08-26T01:06:26.525Z,49.81
2022-08-26T01:06:56.524Z,49.81
2022-08-26T01:07:27.534Z,49.81
2022-08-26T01:08:00.384Z,49.81
2022-08-26T01:08:33.617Z,49.91
2022-08-26T01:09:03.612Z,49.91
2022-08-26T01:09:33.660Z,49.91
2022-08-26T01:10:03.797Z,49.91
2022-08-26T01:10:33.836Z,49.81
2022-08-26T01:11:03.819Z,49.81
2022-08-26T01:11:34.336Z,49.91
2022-08-26T01:12:04.358Z,49.81
2022-08-26T01:12:34.352Z,49.91
2022-08-26T01:13:04.440Z,49.91
2022-08-26T01:13:34.487Z,49.91
2022-08-26T01:14:04.683Z,49.91
2022-08-26T01:14:36.700Z,49.91
2022-08-26T01:15:06.828Z,49.91
2022-08-26T01:15:36.856Z,49.91
2022-08-26T01:16:06.894Z,49.91
2022-08-26T01:16:36.989Z,49.91
2022-08-26T01:17:07.187Z,49.91
2022-08-26T01:17:37.266Z,49.91
2022-08-26T01:18:07.459Z,49.91
2022-08-26T01:18:37.459Z,49.91
2022-08-26T01:19:07.449Z,49.91
2022-08-26T01:19:37.453Z,49.81
2022-08-26T01:20:09.863Z,49.81
2022-08-26T01:20:42.568Z,49.81
2022-08-26T01:21:12.551Z,49.91
2022-08-26T01:21:42.555Z,49.91
2022-08-26T01:22:12.562Z,49.81
2022-08-26T01:22:42.554Z,49.91
2022-08-26T01:23:13.865Z,49.91
2022-08-26T01:23:45.026Z,49.91
2022-08-26T01:24:15.194Z,49.91
2022-08-26T01:24:45.339Z,49.91
2022-08-26T01:25:17.894Z,49.91
2022-08-26T01:25:47.888Z,49.91
2022-08-26T01:26:19.921Z,49.91
2022-08-26T01:26:50.120Z,49.91
2022-08-26T01:27:20.126Z,49.91
2022-08-26T01:27:50.134Z,49.91
2022-08-26T01:28:20.703Z,49.91
2022-08-26T01:28:51.758Z,49.91
2022-08-26T01:29:21.918Z,49.91
2022-08-26T01:29:52.291Z,49.91
2022-08-26T01:30:23.447Z,49.91
2022-08-26T01:30:53.450Z,49.91
2022-08-26T01:31:23.670Z,49.91
2022-08-26T01:31:53.772Z,49.91
2022-08-26T01:32:23.773Z,49.91
2022-08-26T01:32:53.773Z,49.91
2022-08-26T01:33:23.765Z,49.91
2022-08-26T01:33:53.747Z,49.91
2022-08-26T01:34:23.729Z,49.91
2022-08-26T01:34:54.832Z,49.91
2022-08-26T01:35:24.815Z,49.91
2022-08-26T01:35:54.804Z,49.91
2022-08-26T01:36:24.807Z,49.91
2022-08-26T01:36:54.815Z,49.94
2022-08-26T01:37:24.809Z,49.91
2022-08-26T01:37:54.793Z,49.91
2022-08-26T01:38:24.777Z,49.91
2022-08-26T01:38:55.283Z,49.91
2022-08-26T01:39:25.344Z,49.91
2022-08-26T01:39:55.410Z,49.94
2022-08-26T01:40:25.434Z,49.91
2022-08-26T01:40:55.462Z,49.94
2022-08-26T01:41:29.219Z,49.94
2022-08-26T01:42:03.031Z,49.94
2022-08-26T01:42:33.335Z,49.91
2022-08-26T01:43:03.324Z,49.94
2022-08-26T01:43:33.324Z,50.04
2022-08-26T01:44:03.556Z,50.04
2022-08-26T01:44:33.548Z,49.94
2022-08-26T01:45:03.543Z,49.94
2022-08-26T01:45:34.328Z,49.94
2022-08-26T01:46:04.395Z,50.04
2022-08-26T01:46:34.409Z,50.04
2022-08-26T01:47:05.213Z,49.94
2022-08-26T01:47:36.533Z,49.94
2022-08-26T01:48:07.100Z,49.94
2022-08-26T01:48:37.915Z,49.91
2022-08-26T01:49:07.928Z,50.04
2022-08-26T01:49:37.915Z,49.91
2022-08-26T01:50:07.981Z,49.94
2022-08-26T01:50:37.964Z,50.04
2022-08-26T01:51:07.986Z,49.94
2022-08-26T01:51:37.992Z,49.94
2022-08-26T01:52:08.938Z,49.94
2022-08-26T01:52:40.900Z,50.04
2022-08-26T01:53:12.703Z,50.04
2022-08-26T01:53:42.703Z,50.04
2022-08-26T01:54:16.852Z,49.94
2022-08-26T01:54:51.065Z,50.04
2022-08-26T01:55:32.023Z,49.94
2022-08-26T01:55:56.051Z,49.94
2022-08-26T01:56:26.061Z,49.94
2022-08-26T01:57:01.035Z,49.94
2022-08-26T01:57:32.026Z,49.94
2022-08-26T01:58:02.049Z,49.94
2022-08-26T01:58:32.062Z,49.94
2022-08-26T01:59:02.110Z,49.94
2022-08-26T01:59:32.112Z,50.04
2022-08-26T02:00:02.161Z,49.94
2022-08-26T02:00:32.308Z,50.04
2022-08-26T02:01:02.542Z,49.94
2022-08-26T02:01:32.610Z,49.94
2022-08-26T02:02:02.673Z,50.04
2022-08-26T02:02:32.690Z,50.04
2022-08-26T02:03:03.104Z,50.04
2022-08-26T02:03:33.253Z,50.04
2022-08-26T02:04:08.106Z,50.04
2022-08-26T02:04:38.182Z,50.04
2022-08-26T02:05:08.208Z,50.04
2022-08-26T02:05:38.211Z,50.04
2022-08-26T02:06:09.152Z,50.04
2022-08-26T02:06:39.472Z,50.04
2022-08-26T02:07:09.861Z,50.04
2022-08-26T02:07:39.847Z,50.04
2022-08-26T02:08:09.859Z,50.04
2022-08-26T02:08:40.020Z,50.04
2022-08-26T02:09:10.009Z,50.04
2022-08-26T02:09:41.406Z,50.04
2022-08-26T02:10:11.599Z,50.04
2022-08-26T02:10:41.600Z,50.04
2022-08-26T02:11:12.699Z,50.04
2022-08-26T02:11:42.684Z,50.04
2022-08-26T02:12:12.687Z,50.04
2022-08-26T02:12:42.669Z,50.04
2022-08-26T02:13:12.670Z,50.04
2022-08-26T02:13:43.875Z,50.04
2022-08-26T02:14:13.858Z,50.04
2022-08-26T02:14:44.454Z,50.04
2022-08-26T02:15:14.564Z,50.04
2022-08-26T02:15:47.233Z,50.04
2022-08-26T02:16:17.329Z,50.04
2022-08-26T02:16:47.621Z,50.04
2022-08-26T02:17:18.021Z,50.04
2022-08-26T02:17:52.608Z,50.04
2022-08-26T02:18:22.929Z,50.04
2022-08-26T02:18:53.420Z,50.04
2022-08-26T02:19:23.546Z,50.04
2022-08-26T02:19:53.533Z,50.13
2022-08-26T02:20:23.542Z,50.13
2022-08-26T02:20:53.554Z,50.13
2022-08-26T02:21:24.908Z,50.13
2022-08-26T02:21:55.103Z,50.13
2022-08-26T02:22:25.113Z,50.04
2022-08-26T02:22:55.139Z,50.04
2022-08-26T02:23:25.149Z,50.04
2022-08-26T02:23:56.020Z,50.04
2022-08-26T02:24:27.401Z,50.13
2022-08-26T02:24:57.757Z,50.13
2022-08-26T02:25:27.777Z,50.13
2022-08-26T02:25:57.776Z,50.13
2022-08-26T02:26:27.764Z,50.13
2022-08-26T02:26:57.858Z,50.13
2022-08-26T02:27:28.089Z,50.13
2022-08-26T02:27:58.242Z,50.13
2022-08-26T02:28:28.241Z,50.13
2022-08-26T02:28:58.610Z,50.13
2022-08-26T02:29:28.606Z,50.13
2022-08-26T02:29:58.596Z,50.13
2022-08-26T02:30:28.943Z,50.13
2022-08-26T02:30:59.048Z,50.13
2022-08-26T02:31:29.324Z,50.13
2022-08-26T02:31:59.574Z,50.13
2022-08-26T02:32:29.556Z,50.13
2022-08-26T02:32:59.958Z,50.13
2022-08-26T02:33:29.941Z,50.13
2022-08-26T02:34:00.430Z,50.13
2022-08-26T02:34:31.366Z,50.13
2022-08-26T02:35:01.455Z,50.13
2022-08-26T02:35:31.462Z,50.13
2022-08-26T02:36:01.646Z,50.13
2022-08-26T02:36:31.648Z,50.13
2022-08-26T02:37:01.653Z,50.13
2022-08-26T02:37:31.646Z,50.13
2022-08-26T02:38:09.951Z,50.13
2022-08-26T02:38:38.928Z,50.13
2022-08-26T02:39:09.738Z,50.13
2022-08-26T02:39:39.734Z,50.13
2022-08-26T02:40:09.802Z,50.13
2022-08-26T02:40:39.846Z,50.13
2022-08-26T02:41:10.019Z,50.13
2022-08-26T02:41:44.779Z,50.13
2022-08-26T02:42:15.277Z,50.13
2022-08-26T02:42:45.283Z,50.13
2022-08-26T02:43:15.283Z,50.13
2022-08-26T02:43:45.306Z,50.13
2022-08-26T02:44:15.297Z,50.13
2022-08-26T02:44:45.294Z,50.13
2022-08-26T02:45:16.332Z,50.13
2022-08-26T02:45:50.243Z,50.13
2022-08-26T02:46:21.542Z,50.13
2022-08-26T02:46:55.206Z,50.13
2022-08-26T02:47:25.213Z,50.13
2022-08-26T02:47:59.621Z,50.13
2022-08-26T02:48:29.740Z,50.13
2022-08-26T02:48:59.756Z,50.13
2022-08-26T02:49:29.757Z,50.13
2022-08-26T02:49:59.743Z,50.13
2022-08-26T02:50:29.730Z,50.13
2022-08-26T02:50:59.734Z,50.13
2022-08-26T02:51:29.739Z,50.13
2022-08-26T02:51:59.737Z,50.23
2022-08-26T02:52:31.929Z,50.23
2022-08-26T02:53:02.291Z,50.23
2022-08-26T02:53:35.666Z,50.23
2022-08-26T02:54:05.721Z,50.13
2022-08-26T02:54:35.704Z,50.13
2022-08-26T02:55:05.988Z,50.13
2022-08-26T02:55:35.988Z,50.13
2022-08-26T02:56:05.984Z,50.13
2022-08-26T02:56:35.958Z,50.13
2022-08-26T02:57:05.962Z,50.23
2022-08-26T02:57:36.739Z,50.23
2022-08-26T02:58:07.824Z,50.23
2022-08-26T02:58:37.814Z,50.23
2022-08-26T02:59:07.821Z,50.23
2022-08-26T02:59:38.943Z,50.23
2022-08-26T03:00:08.951Z,50.23
2022-08-26T03:00:39.017Z,50.23
2022-08-26T03:01:13.945Z,50.23
2022-08-26T03:01:44.000Z,50.23
2022-08-26T03:02:14.073Z,50.23
2022-08-26T03:02:44.087Z,50.23
2022-08-26T03:03:14.173Z,50.23
2022-08-26T03:03:44.175Z,50.23
2022-08-26T03:04:14.174Z,50.23
2022-08-26T03:04:58.124Z,50.23
2022-08-26T03:05:20.164Z,50.23
2022-08-26T03:05:50.162Z,50.23
2022-08-26T03:06:20.147Z,50.23
2022-08-26T03:06:52.619Z,50.23
2022-08-26T03:07:22.967Z,50.23
2022-08-26T03:07:52.949Z,50.23
2022-08-26T03:08:23.940Z,50.23
2022-08-26T03:08:55.324Z,50.23
2022-08-26T03:09:25.612Z,50.23
2022-08-26T03:09:55.952Z,50.23
2022-08-26T03:10:26.618Z,50.23
2022-08-26T03:10:57.231Z,50.23
2022-08-26T03:11:30.944Z,50.23
2022-08-26T03:12:02.138Z,50.23
2022-08-26T03:12:32.117Z,50.23
2022-08-26T03:13:05.112Z,50.23
2022-08-26T03:13:35.377Z,50.34
2022-08-26T03:14:05.422Z,50.34
2022-08-26T03:14:35.889Z,50.34
2022-08-26T03:15:15.957Z,50.34
2022-08-26T03:15:40.784Z,50.34
2022-08-26T03:16:10.897Z,50.34
2022-08-26T03:16:40.914Z,50.43
2022-08-26T03:17:11.677Z,50.43
2022-08-26T03:17:41.659Z,50.43
2022-08-26T03:18:12.481Z,50.43
2022-08-26T03:18:42.460Z,50.43
2022-08-26T03:19:12.458Z,50.43
2022-08-26T03:19:42.436Z,50.43
2022-08-26T03:20:13.629Z,50.53
2022-08-26T03:20:45.501Z,50.53
2022-08-26T03:21:15.498Z,50.53
2022-08-26T03:21:47.310Z,50.53
2022-08-26T03:22:17.532Z,50.53
2022-08-26T03:22:47.517Z,50.53
2022-08-26T03:23:18.770Z,50.53
2022-08-26T03:23:48.775Z,50.53
2022-08-26T03:24:18.754Z,50.53
2022-08-26T03:24:48.739Z,50.63
2022-08-26T03:25:18.760Z,50.63
2022-08-26T03:25:48.741Z,50.63
2022-08-26T03:26:18.748Z,50.63
2022-08-26T03:26:52.183Z,50.63
2022-08-26T03:27:22.969Z,50.63
2022-08-26T03:27:52.942Z,50.63
2022-08-26T03:28:22.914Z,50.63
2022-08-26T03:28:57.082Z,50.63
2022-08-26T03:29:28.411Z,50.73
2022-08-26T03:30:02.946Z,50.73
2022-08-26T03:30:32.930Z,50.73
2022-08-26T03:31:03.158Z,50.73
2022-08-26T03:31:33.236Z,50.73
2022-08-26T03:32:03.264Z,50.83
2022-08-26T03:32:33.244Z,50.83
2022-08-26T03:33:03.229Z,50.83
2022-08-26T03:33:33.834Z,50.83
2022-08-26T03:34:03.810Z,50.93
2022-08-26T03:34:34.068Z,50.93
2022-08-26T03:35:04.056Z,50.93
2022-08-26T03:35:34.046Z,50.93
2022-08-26T03:36:04.033Z,50.93
2022-08-26T03:36:35.157Z,50.93
2022-08-26T03:37:05.195Z,50.93
2022-08-26T03:37:35.308Z,50.93
2022-08-26T03:38:05.290Z,51.03
2022-08-26T03:38:35.284Z,51.03
2022-08-26T03:39:05.263Z,51.03
2022-08-26T03:39:35.246Z,51.03
2022-08-26T03:40:05.301Z,51.12
2022-08-26T03:40:35.370Z,51.12
2022-08-26T03:41:05.433Z,51.03
2022-08-26T03:41:36.909Z,51.12
2022-08-26T03:42:07.420Z,51.12
2022-08-26T03:42:37.605Z,51.23
2022-08-26T03:43:09.499Z,51.23
2022-08-26T03:43:40.111Z,51.23
2022-08-26T03:44:10.431Z,51.23
2022-08-26T03:44:42.262Z,51.23
2022-08-26T03:45:12.339Z,51.23
2022-08-26T03:45:42.573Z,51.23
2022-08-26T03:46:12.653Z,51.32
2022-08-26T03:46:42.971Z,51.32
2022-08-26T03:47:14.089Z,51.42
2022-08-26T03:47:44.080Z,51.42
2022-08-26T03:48:14.073Z,51.42
2022-08-26T03:48:44.055Z,51.42
2022-08-26T03:49:15.213Z,51.42
2022-08-26T03:49:45.247Z,51.42
2022-08-26T03:50:15.224Z,51.42
2022-08-26T03:50:45.214Z,51.42
2022-08-26T03:51:18.366Z,51.52
2022-08-26T03:51:49.052Z,51.52
2022-08-26T03:52:20.093Z,51.52
2022-08-26T03:52:50.075Z,51.62
2022-08-26T03:53:20.646Z,51.62
2022-08-26T03:53:50.668Z,51.62
2022-08-26T03:54:20.652Z,51.62
2022-08-26T03:54:50.634Z,51.72
2022-08-26T03:55:20.618Z,51.72
2022-08-26T03:55:53.777Z,51.72
2022-08-26T03:56:23.785Z,51.72
2022-08-26T03:56:53.808Z,51.72
2022-08-26T03:57:23.795Z,51.75
2022-08-26T03:57:53.782Z,51.75
2022-08-26T03:58:23.766Z,51.72
2022-08-26T03:58:53.748Z,51.84
2022-08-26T03:59:23.730Z,51.82
2022-08-26T03:59:54.553Z,51.82
2022-08-26T04:00:24.542Z,51.92
2022-08-26T04:00:55.766Z,51.94
2022-08-26T04:01:25.907Z,51.92
2022-08-26T04:01:56.025Z,51.92
2022-08-26T04:02:26.141Z,51.92
2022-08-26T04:02:56.277Z,51.92
2022-08-26T04:03:26.406Z,52.02
2022-08-26T04:03:56.692Z,52.02
2022-08-26T04:04:28.231Z,52.02
2022-08-26T04:04:58.210Z,51.94
2022-08-26T04:05:28.314Z,51.92
2022-08-26T04:05:58.347Z,52.02
2022-08-26T04:06:28.364Z,52.02
2022-08-26T04:06:58.406Z,52.14
2022-08-26T04:07:28.437Z,52.12
2022-08-26T04:08:01.972Z,52.12
2022-08-26T04:08:31.967Z,52.12
2022-08-26T04:09:01.950Z,52.12
2022-08-26T04:09:35.261Z,52.22
2022-08-26T04:10:05.449Z,52.22
2022-08-26T04:10:35.429Z,52.22
2022-08-26T04:11:05.401Z,52.22
2022-08-26T04:11:35.458Z,52.22
2022-08-26T04:12:08.660Z,52.24
2022-08-26T04:12:38.642Z,52.31
2022-08-26T04:13:08.879Z,52.31
2022-08-26T04:13:38.972Z,52.22
2022-08-26T04:14:10.048Z,52.22
2022-08-26T04:14:40.031Z,52.22
2022-08-26T04:15:10.012Z,52.22
2022-08-26T04:15:40.004Z,52.31
2022-08-26T04:16:10.259Z,52.41
2022-08-26T04:16:40.386Z,52.41
2022-08-26T04:17:10.379Z,52.31
2022-08-26T04:17:40.375Z,52.41
2022-08-26T04:18:10.527Z,52.41
2022-08-26T04:18:40.596Z,52.41
2022-08-26T04:19:15.439Z,52.54
2022-08-26T04:19:45.418Z,52.54
2022-08-26T04:20:16.238Z,52.51
2022-08-26T04:20:46.353Z,52.51
2022-08-26T04:21:16.339Z,52.51
2022-08-26T04:21:46.319Z,52.51
2022-08-26T04:22:16.295Z,52.51
2022-08-26T04:22:51.221Z,52.51
2022-08-26T04:23:21.212Z,52.51
2022-08-26T04:23:51.207Z,52.51
2022-08-26T04:24:21.193Z,52.51
2022-08-26T04:24:51.489Z,52.61
2022-08-26T04:25:21.620Z,52.61
2022-08-26T04:25:51.622Z,52.61
2022-08-26T04:26:21.597Z,52.61
2022-08-26T04:26:51.778Z,52.61
2022-08-26T04:27:21.757Z,52.61
2022-08-26T04:27:52.107Z,52.61
2022-08-26T04:28:22.504Z,52.61
2022-08-26T04:28:52.643Z,52.61
2022-08-26T04:29:22.641Z,52.61
2022-08-26T04:29:55.290Z,52.71
2022-08-26T04:30:25.572Z,52.71
2022-08-26T04:30:55.627Z,52.71
2022-08-26T04:31:25.692Z,52.71
2022-08-26T04:31:56.387Z,52.71
2022-08-26T04:32:26.369Z,52.71
2022-08-26T04:32:56.708Z,52.71
2022-08-26T04:33:32.207Z,52.71
2022-08-26T04:34:02.562Z,52.71
2022-08-26T04:34:32.535Z,52.71
2022-08-26T04:35:03.610Z,52.61
2022-08-26T04:35:34.661Z,52.71
2022-08-26T04:36:04.648Z,52.71
2022-08-26T04:36:35.293Z,52.71
2022-08-26T04:37:05.776Z,52.71
2022-08-26T04:37:35.758Z,52.81
2022-08-26T04:38:05.889Z,52.81
2022-08-26T04:38:37.545Z,52.71
2022-08-26T04:39:07.536Z,52.71
2022-08-26T04:39:37.522Z,52.71
2022-08-26T04:40:07.587Z,52.81
2022-08-26T04:40:38.655Z,52.81
2022-08-26T04:41:15.378Z,52.71
2022-08-26T04:41:43.863Z,52.81
2022-08-26T04:42:14.314Z,52.81
2022-08-26T04:42:44.295Z,52.81
2022-08-26T04:43:14.290Z,52.81
2022-08-26T04:43:44.280Z,52.81
2022-08-26T04:44:14.261Z,52.81
2022-08-26T04:44:44.417Z,52.71
2022-08-26T04:45:14.401Z,52.81
2022-08-26T04:45:44.407Z,52.81
2022-08-26T04:46:14.503Z,52.71
2022-08-26T04:46:44.606Z,52.81
2022-08-26T04:47:14.637Z,52.81
2022-08-26T04:47:44.625Z,52.81
2022-08-26T04:48:16.744Z,52.81
2022-08-26T04:48:47.043Z,52.91
2022-08-26T04:49:17.018Z,52.91
2022-08-26T04:49:48.405Z,52.91
2022-08-26T04:50:18.385Z,52.81
2022-08-26T04:50:51.546Z,52.81
2022-08-26T04:51:21.523Z,52.81
2022-08-26T04:51:52.048Z,52.91
2022-08-26T04:52:22.042Z,52.91
2022-08-26T04:52:52.773Z,52.91
2022-08-26T04:53:22.762Z,52.91
2022-08-26T04:53:53.070Z,52.91
2022-08-26T04:54:23.052Z,52.81
2022-08-26T04:54:55.118Z,52.91
2022-08-26T04:55:37.267Z,52.81
2022-08-26T04:56:00.032Z,52.91
2022-08-26T04:56:30.014Z,52.91
2022-08-26T04:56:59.988Z,52.81
2022-08-26T04:57:29.971Z,52.81
2022-08-26T04:57:59.954Z,52.81
2022-08-26T04:58:29.930Z,52.81
2022-08-26T04:58:59.942Z,52.81
2022-08-26T04:59:29.921Z,52.81
2022-08-26T04:59:59.896Z,52.91
2022-08-26T05:00:29.880Z,52.81
2022-08-26T05:00:59.884Z,52.81
2022-08-26T05:01:29.956Z,52.81
2022-08-26T05:02:00.066Z,52.81
2022-08-26T05:02:30.087Z,52.81
2022-08-26T05:03:00.087Z,52.71
2022-08-26T05:03:30.527Z,52.69
2022-08-26T05:04:01.203Z,52.71
2022-08-26T05:04:34.969Z,52.69
2022-08-26T05:05:04.951Z,52.69
2022-08-26T05:05:34.928Z,52.69
2022-08-26T05:06:05.291Z,52.69
2022-08-26T05:06:36.902Z,52.69
2022-08-26T05:07:07.202Z,52.69
2022-08-26T05:07:37.189Z,52.69
2022-08-26T05:08:07.172Z,52.69
2022-08-26T05:08:38.906Z,52.69
2022-08-26T05:09:10.987Z,52.69
2022-08-26T05:09:40.960Z,52.69
2022-08-26T05:10:10.936Z,52.69
2022-08-26T05:10:40.922Z,52.59
2022-08-26T05:11:10.914Z,52.59
2022-08-26T05:11:40.899Z,52.59
2022-08-26T05:12:11.451Z,52.59
2022-08-26T05:12:41.678Z,52.59
2022-08-26T05:13:15.708Z,52.59
2022-08-26T05:13:45.847Z,52.59
2022-08-26T05:14:16.790Z,52.59
2022-08-26T05:14:46.787Z,52.59
2022-08-26T05:15:16.948Z,52.59
2022-08-26T05:15:47.314Z,52.59
2022-08-26T05:16:17.488Z,52.59
2022-08-26T05:16:47.728Z,52.59
2022-08-26T05:17:17.831Z,52.59
2022-08-26T05:17:47.810Z,52.49
2022-08-26T05:18:17.792Z,52.49
2022-08-26T05:18:50.030Z,52.49
2022-08-26T05:19:20.007Z,52.49
2022-08-26T05:19:51.202Z,52.49
2022-08-26T05:20:25.232Z,52.49
2022-08-26T05:20:56.112Z,52.49
2022-08-26T05:21:26.095Z,52.49
2022-08-26T05:21:57.048Z,52.49
2022-08-26T05:22:27.026Z,52.39
2022-08-26T05:22:57.010Z,52.49
2022-08-26T05:23:27.010Z,52.49
2022-08-26T05:23:57.014Z,52.39
2022-08-26T05:24:27.011Z,52.36
2022-08-26T05:24:57.359Z,52.36
2022-08-26T05:25:27.526Z,52.36
2022-08-26T05:26:00.336Z,52.36
2022-08-26T05:26:30.567Z,52.36
2022-08-26T05:27:00.551Z,52.36
2022-08-26T05:27:30.538Z,52.36
2022-08-26T05:28:00.578Z,52.36
2022-08-26T05:28:30.565Z,52.36
2022-08-26T05:29:00.538Z,52.36
2022-08-26T05:29:30.515Z,52.26
2022-08-26T05:30:00.505Z,52.36
2022-08-26T05:30:31.146Z,52.36
2022-08-26T05:31:01.252Z,52.26
2022-08-26T05:31:31.371Z,52.26
2022-08-26T05:32:01.400Z,52.26
2022-08-26T05:32:31.382Z,52.26
2022-08-26T05:33:01.366Z,52.26
2022-08-26T05:33:32.750Z,52.17
2022-08-26T05:34:03.585Z,52.17
2022-08-26T05:34:33.869Z,52.26
2022-08-26T05:35:03.864Z,52.26
2022-08-26T05:35:38.784Z,52.17
2022-08-26T05:36:08.766Z,52.17
2022-08-26T05:36:39.258Z,52.17
2022-08-26T05:37:09.232Z,52.17
2022-08-26T05:37:39.233Z,52.17
2022-08-26T05:38:12.431Z,52.07
2022-08-26T05:38:42.878Z,52.07
2022-08-26T05:39:14.004Z,52.07
2022-08-26T05:39:51.122Z,52.07
2022-08-26T05:40:19.104Z,52.04
2022-08-26T05:40:49.522Z,52.04
2022-08-26T05:41:22.969Z,52.04
2022-08-26T05:41:52.959Z,51.94
2022-08-26T05:42:22.932Z,51.94
2022-08-26T05:42:52.910Z,51.84
2022-08-26T05:43:22.888Z,51.84
2022-08-26T05:43:52.871Z,51.84
2022-08-26T05:44:22.856Z,51.84
2022-08-26T05:44:55.332Z,51.84
2022-08-26T05:45:26.112Z,51.75
2022-08-26T05:45:56.190Z,51.75
2022-08-26T05:46:26.261Z,51.75
2022-08-26T05:46:56.699Z,51.65
2022-08-26T05:47:26.685Z,51.65
2022-08-26T05:47:57.053Z,51.75
2022-08-26T05:48:27.057Z,51.65
2022-08-26T05:48:57.067Z,51.65
2022-08-26T05:49:27.066Z,51.65
2022-08-26T05:49:57.185Z,51.54
2022-08-26T05:50:27.198Z,51.54
2022-08-26T05:50:57.187Z,51.52
2022-08-26T05:51:27.276Z,51.52
2022-08-26T05:52:00.506Z,51.52
2022-08-26T05:52:30.512Z,51.42
2022-08-26T05:53:00.702Z,51.32
2022-08-26T05:53:31.958Z,51.32
2022-08-26T05:54:02.131Z,51.32
2022-08-26T05:54:33.636Z,51.42
2022-08-26T05:55:03.642Z,51.32
2022-08-26T05:55:33.654Z,51.32
2022-08-26T05:56:04.103Z,51.32
2022-08-26T05:56:34.080Z,51.23
2022-08-26T05:57:04.711Z,51.13
2022-08-26T05:57:39.967Z,51.13
2022-08-26T05:58:09.784Z,51.03
2022-08-26T05:58:39.808Z,51.03
2022-08-26T05:59:14.170Z,51.03
2022-08-26T05:59:44.603Z,50.90
2022-08-26T06:00:15.977Z,50.81
2022-08-26T06:00:45.982Z,50.71
2022-08-26T06:01:16.041Z,50.61
2022-08-26T06:01:46.434Z,50.61
2022-08-26T06:02:16.462Z,50.41
2022-08-26T06:02:48.406Z,50.41
2022-08-26T06:03:18.620Z,50.38
2022-08-26T06:03:48.974Z,50.29
2022-08-26T06:04:20.013Z,50.19
2022-08-26T06:04:50.275Z,50.09
2022-08-26T06:05:21.895Z,50.09
2022-08-26T06:05:52.108Z,49.99
2022-08-26T06:06:27.529Z,49.89
2022-08-26T06:06:57.199Z,49.79
2022-08-26T06:07:27.386Z,49.77
2022-08-26T06:07:57.570Z,49.77
2022-08-26T06:08:27.580Z,49.67
2022-08-26T06:08:57.709Z,49.67
2022-08-26T06:09:27.717Z,49.57
2022-08-26T06:10:21.388Z,49.57
2022-08-26T06:10:33.121Z,49.57
2022-08-26T06:11:03.250Z,49.48
2022-08-26T06:11:35.396Z,49.48
2022-08-26T06:12:05.376Z,49.37
2022-08-26T06:12:35.359Z,49.37
2022-08-26T06:13:09.188Z,49.27
2022-08-26T06:13:40.384Z,49.25
2022-08-26T06:14:10.401Z,49.15
2022-08-26T06:14:40.403Z,49.15
2022-08-26T06:15:10.411Z,49.15
2022-08-26T06:15:41.933Z,49.15
2022-08-26T06:16:12.207Z,49.05
2022-08-26T06:16:42.563Z,49.05
2022-08-26T06:17:12.567Z,49.05
2022-08-26T06:17:42.985Z,49.05
2022-08-26T06:18:12.969Z,48.96
2022-08-26T06:18:42.985Z,48.96
2022-08-26T06:19:12.967Z,48.86
2022-08-26T06:19:42.944Z,48.86
2022-08-26T06:20:12.951Z,48.86
2022-08-26T06:20:42.962Z,48.75
2022-08-26T06:21:17.884Z,48.66
2022-08-26T06:21:47.913Z,48.63
2022-08-26T06:22:23.472Z,48.54
2022-08-26T06:22:53.806Z,48.54
2022-08-26T06:23:23.809Z,48.44
2022-08-26T06:23:53.822Z,48.44
2022-08-26T06:24:26.871Z,48.34
2022-08-26T06:24:57.367Z,48.34
2022-08-26T06:25:27.361Z,48.24
2022-08-26T06:25:57.344Z,48.24
2022-08-26T06:26:27.341Z,48.24
2022-08-26T06:26:57.334Z,48.14
2022-08-26T06:27:32.126Z,48.14
2022-08-26T06:28:02.265Z,48.14
2022-08-26T06:28:33.090Z,48.14
2022-08-26T06:29:03.151Z,48.14
2022-08-26T06:29:34.188Z,48.02
2022-08-26T06:30:04.203Z,48.02
2022-08-26T06:30:34.206Z,48.02
2022-08-26T06:31:04.246Z,48.02
2022-08-26T06:31:34.378Z,48.02
2022-08-26T06:32:04.429Z,47.92
2022-08-26T06:32:34.540Z,47.92
2022-08-26T06:33:04.608Z,47.92
2022-08-26T06:33:35.400Z,47.92
2022-08-26T06:34:10.371Z,47.92
2022-08-26T06:34:40.367Z,47.82
2022-08-26T06:35:12.284Z,47.82